Time;durP1;ratioP1;P1;durP2;ratioP2;P2;SDS_P1;SDS_P2;PMS_P1;PMS_P2;Temp;Humidity;BMP_temperature;BMP_pressure;BME280_temperature;BME280_humidity;BME280_pressure;Samples;Min_cycle;Max_cycle;Signal;HPM_P1;HPM_P2
2021/05/31 00:02:21;;;;;;;1.83;0.88;;;;;;;15.51;66.05;100214.91;4402508;32;33787;-79
2021/05/31 00:04:50;;;;;;;1.20;1.02;;;;;;;15.53;65.89;100209.41;4429458;32;33615;-77
2021/05/31 00:07:19;;;;;;;2.08;1.00;;;;;;;15.22;67.00;100216.34;4403853;32;34413;-81
2021/05/31 00:09:49;;;;;;;1.27;1.12;;;;;;;15.09;67.32;100211.44;4416825;32;34173;-81
2021/05/31 00:12:18;;;;;;;0.32;0.32;;;;;;;15.15;67.17;100212.63;4431109;32;33617;-79
2021/05/31 00:14:46;;;;;;;1.05;0.85;;;;;;;15.17;67.05;100210.63;4427721;32;32759;-82
2021/05/31 00:17:14;;;;;;;0.90;0.40;;;;;;;15.34;66.29;100210.56;4390010;32;34289;-78
2021/05/31 00:19:42;;;;;;;2.30;1.90;;;;;;;15.44;66.01;100202.34;4415829;32;34134;-80
2021/05/31 00:22:10;;;;;;;1.87;1.50;;;;;;;15.53;65.81;100207.56;4416986;32;33220;-80
2021/05/31 00:24:38;;;;;;;2.58;1.58;;;;;;;15.39;66.26;100207.38;4428182;32;33646;-83
2021/05/31 00:27:05;;;;;;;;;;;;;;;15.21;67.24;100214.66;4415749;32;34967;-81
2021/05/31 00:29:33;;;;;;;1.55;1.00;;;;;;;15.55;66.21;100210.06;4404390;32;34491;-82
2021/05/31 00:32:01;;;;;;;2.37;1.27;;;;;;;15.42;66.57;100210.53;4404085;32;33292;-80
2021/05/31 00:34:29;;;;;;;;;;;;;;;15.19;67.67;100212.16;4416814;32;33846;-82
2021/05/31 00:36:56;;;;;;;1.87;1.20;;;;;;;15.22;67.68;100206.44;4428169;32;34333;-80
2021/05/31 00:39:24;;;;;;;1.52;1.42;;;;;;;15.21;67.58;100198.59;4430643;32;35989;-81
2021/05/31 00:41:54;;;;;;;0.98;0.98;;;;;;;14.95;68.09;100195.97;4416952;32;33871;-79
2021/05/31 00:44:22;;;;;;;1.60;1.12;;;;;;;15.33;66.14;100189.25;4404296;32;33308;-81
2021/05/31 00:46:52;;;;;;;1.30;0.73;;;;;;;15.11;66.81;100184.50;4401201;32;34556;-82
2021/05/31 00:49:27;;;;;;;1.95;1.75;;;;;;;15.32;66.14;100184.91;4416307;32;35034;-83
2021/05/31 00:51:55;;;;;;;1.05;0.82;;;;;;;15.43;65.78;100187.25;4417101;32;33046;-80
2021/05/31 00:54:23;;;;;;;3.25;1.80;;;;;;;15.29;66.20;100187.88;4404143;32;33969;-77
2021/05/31 00:56:51;;;;;;;1.73;1.20;;;;;;;15.15;66.57;100191.19;4399781;32;34433;-80
2021/05/31 00:59:18;;;;;;;1.05;0.93;;;;;;;14.97;67.49;100185.97;4402853;32;35200;-81
2021/05/31 01:01:48;;;;;;;2.60;1.62;;;;;;;15.05;67.32;100179.78;4403051;32;31530;-84
2021/05/31 01:04:18;;;;;;;1.20;0.88;;;;;;;15.07;67.36;100177.75;4430077;32;33435;-79
2021/05/31 01:07:38;;;;;;;1.27;1.17;;;;;;;14.68;68.57;100165.91;4414564;32;34315;-80
2021/05/31 01:10:06;;;;;;;2.47;1.87;;;;;;;15.07;67.12;100173.25;4380230;32;33739;-83
2021/05/31 01:12:43;;;;;;;2.28;1.77;;;;;;;15.07;67.19;100169.72;4369275;32;33784;-81
2021/05/31 01:15:16;;;;;;;2.00;1.85;;;;;;;15.13;66.44;100177.94;4382164;32;33789;-76
2021/05/31 01:18:06;;;;;;;1.95;1.60;;;;;;;15.03;66.66;100171.91;4355071;32;35280;-80
2021/05/31 01:20:40;;;;;;;2.97;1.35;;;;;;;15.06;66.79;100166.22;4369521;32;33875;-80
2021/05/31 01:23:10;;;;;;;1.50;1.20;;;;;;;14.45;68.83;100167.47;4354898;32;31754;-78
2021/05/31 01:26:08;;;;;;;2.08;1.35;;;;;;;14.69;67.44;100168.44;4368300;32;35459;-78
2021/05/31 01:28:50;;;;;;;1.23;1.15;;;;;;;14.96;66.54;100162.84;4381834;32;34268;-79
2021/05/31 01:31:23;;;;;;;1.92;1.45;;;;;;;14.89;66.73;100166.31;4371252;32;33619;-84
2021/05/31 01:33:52;;;;;;;3.30;1.50;;;;;;;14.51;67.97;100161.50;4369660;32;34450;-78
2021/05/31 01:36:20;;;;;;;3.17;1.02;;;;;;;14.48;67.85;100148.44;4367516;32;33483;-83
2021/05/31 01:38:49;;;;;;;4.50;2.10;;;;;;;14.61;67.27;100151.50;4381933;32;36800;-79
2021/05/31 01:41:18;;;;;;;1.85;1.35;;;;;;;13.92;69.70;100149.91;4367829;32;33450;-84
2021/05/31 01:43:46;;;;;;;1.50;1.40;;;;;;;14.21;68.54;100145.09;4387780;32;32954;-79
2021/05/31 01:46:14;;;;;;;1.62;1.20;;;;;;;14.33;67.96;100142.00;4430189;32;33105;-82
2021/05/31 01:48:42;;;;;;;;;;;;;;;14.28;67.97;100138.97;4416646;32;35428;-80
2021/05/31 01:51:10;;;;;;;1.55;1.42;;;;;;;14.35;67.67;100139.97;4412830;32;35218;-85
2021/05/31 01:53:38;;;;;;;2.12;1.92;;;;;;;14.44;67.17;100139.03;4417274;32;34003;-80
2021/05/31 01:56:07;;;;;;;1.05;0.75;;;;;;;14.39;67.52;100141.38;4416403;32;33898;-78
2021/05/31 01:58:53;;;;;;;2.72;1.37;;;;;;;14.37;67.70;100145.19;4416884;32;36383;-80
2021/05/31 02:01:21;;;;;;;1.50;1.35;;;;;;;14.19;68.35;100147.09;4403313;32;33560;-80
2021/05/31 02:03:49;;;;;;;3.30;1.83;;;;;;;14.36;67.77;100152.41;4416972;32;34192;-80
2021/05/31 02:06:18;;;;;;;1.15;0.98;;;;;;;14.43;67.77;100152.59;4431060;32;33683;-81
2021/05/31 02:08:45;;;;;;;;;;;;;;;14.43;67.65;100153.41;4428887;32;33767;-78
2021/05/31 02:11:25;;;;;;;1.60;1.50;;;;;;;14.10;68.62;100148.00;4430549;32;33862;-82
2021/05/31 02:13:58;;;;;;;1.83;1.25;;;;;;;14.33;67.18;100149.19;4416698;32;33625;-82
2021/05/31 02:16:31;;;;;;;2.80;2.10;;;;;;;14.19;67.45;100147.09;4414158;32;33052;-81
2021/05/31 02:19:02;;;;;;;3.03;1.17;;;;;;;13.91;68.58;100146.41;4402761;32;34805;-79
2021/05/31 02:21:30;;;;;;;1.12;1.10;;;;;;;13.74;69.00;100149.09;4414116;32;34449;-80
2021/05/31 02:23:58;;;;;;;1.45;1.37;;;;;;;13.47;70.04;100144.72;4430149;32;33261;-80
2021/05/31 02:26:27;;;;;;;2.65;1.67;;;;;;;13.43;70.16;100142.50;4415230;32;33628;-82
2021/05/31 02:28:55;;;;;;;1.83;1.10;;;;;;;13.20;71.04;100141.28;4416028;32;35777;-79
2021/05/31 02:31:23;;;;;;;2.00;0.93;;;;;;;13.09;71.08;100130.81;4401125;32;34806;-76
2021/05/31 02:33:52;;;;;;;1.73;1.48;;;;;;;13.64;68.81;100140.31;4416034;32;34629;-84
2021/05/31 02:36:19;;;;;;;3.75;1.70;;;;;;;13.64;69.15;100143.00;4415283;32;33730;-80
2021/05/31 02:38:47;;;;;;;1.10;1.02;;;;;;;13.75;68.69;100142.75;4414323;32;34252;-80
2021/05/31 02:41:14;;;;;;;;;;;;;;;13.87;68.19;100142.34;4415516;32;34143;-79
2021/05/31 02:43:42;;;;;;;1.58;0.62;;;;;;;13.82;68.05;100142.00;4415451;32;31835;-81
2021/05/31 02:46:10;;;;;;;3.25;1.25;;;;;;;13.74;67.68;100141.06;4402735;32;33526;-82
2021/05/31 02:48:38;;;;;;;1.85;1.00;;;;;;;13.81;67.68;100139.47;4415585;32;35375;-83
2021/05/31 02:51:05;;;;;;;1.65;1.12;;;;;;;13.80;68.02;100135.09;4427436;32;33887;-82
2021/05/31 02:53:33;;;;;;;0.95;0.95;;;;;;;13.75;68.31;100140.94;4413898;32;33298;-77
2021/05/31 02:56:02;;;;;;;2.92;1.00;;;;;;;13.78;68.14;100142.47;4402427;32;34474;-84
2021/05/31 02:58:30;;;;;;;1.55;1.45;;;;;;;13.87;68.16;100145.00;4402675;32;34812;-80
2021/05/31 03:00:57;;;;;;;1.95;0.95;;;;;;;13.90;68.04;100143.88;4426824;32;33812;-79
2021/05/31 03:03:25;;;;;;;;;;;;;;;14.01;67.15;100133.75;4429476;32;33261;-78
2021/05/31 03:05:53;;;;;;;3.28;1.48;;;;;;;14.00;66.84;100136.59;4414736;32;33405;-79
2021/05/31 03:08:21;;;;;;;1.77;1.17;;;;;;;13.89;66.98;100135.00;4415457;32;36876;-79
2021/05/31 03:10:49;;;;;;;1.73;1.48;;;;;;;13.82;67.08;100133.97;4426836;32;34158;-80
2021/05/31 03:13:17;;;;;;;1.37;0.98;;;;;;;13.74;67.82;100133.03;4428422;32;34341;-80
2021/05/31 03:15:46;;;;;;;1.17;1.00;;;;;;;13.74;66.88;100130.38;4414519;32;33737;-78
2021/05/31 03:18:14;;;;;;;1.00;0.77;;;;;;;13.65;67.09;100136.66;4428942;32;36514;-79
2021/05/31 03:20:42;;;;;;;1.00;0.98;;;;;;;13.63;66.93;100131.47;4416470;32;34859;-81
2021/05/31 03:23:10;;;;;;;1.23;1.12;;;;;;;13.61;67.04;100121.94;4414979;32;32794;-83
2021/05/31 03:25:38;;;;;;;0.70;0.70;;;;;;;13.61;67.45;100135.31;4430642;32;33658;-80
2021/05/31 03:28:06;;;;;;;3.00;1.35;;;;;;;13.39;68.21;100133.94;4431299;32;34904;-75
2021/05/31 03:30:34;;;;;;;0.82;0.80;;;;;;;13.54;68.04;100129.75;4416067;32;34191;-80
2021/05/31 03:33:02;;;;;;;0.77;0.62;;;;;;;13.61;68.06;100124.59;4402180;32;32933;-76
2021/05/31 03:35:30;;;;;;;1.00;0.90;;;;;;;13.42;68.04;100138.16;4402521;32;34657;-82
2021/05/31 03:37:57;;;;;;;1.65;1.52;;;;;;;13.43;67.92;100132.66;4403470;32;33876;-78
2021/05/31 03:40:26;;;;;;;1.05;0.80;;;;;;;13.30;68.28;100140.22;4430843;32;33555;-80
2021/05/31 03:42:54;;;;;;;0.70;0.65;;;;;;;13.22;68.77;100136.63;4416285;32;34197;-78
2021/05/31 03:45:23;;;;;;;2.42;1.48;;;;;;;13.19;68.32;100143.13;4404081;32;33361;-76
2021/05/31 03:47:51;;;;;;;2.45;0.95;;;;;;;13.28;67.89;100134.19;4416924;32;34751;-80
2021/05/31 03:50:19;;;;;;;1.98;1.87;;;;;;;13.18;68.26;100140.59;4416840;32;33985;-78
2021/05/31 03:52:49;;;;;;;0.88;0.88;;;;;;;13.24;67.88;100132.78;4404100;32;33203;-77
2021/05/31 03:55:17;;;;;;;0.75;0.75;;;;;;;13.39;67.60;100133.13;4417406;32;33631;-81
2021/05/31 03:57:45;;;;;;;2.03;1.05;;;;;;;13.60;66.62;100123.75;4416365;32;35547;-78
2021/05/31 04:00:14;;;;;;;1.00;0.90;;;;;;;13.55;66.34;100125.22;4402776;32;34107;-78
2021/05/31 04:02:43;;;;;;;2.22;1.25;;;;;;;13.53;66.93;100127.22;4412121;32;32625;-81
2021/05/31 04:05:12;;;;;;;0.95;0.65;;;;;;;13.29;67.52;100132.34;4402711;32;32240;-80
2021/05/31 04:13:13;;;;;;;1.05;0.50;;;;;;;13.47;66.85;100125.16;4415376;32;34683;-78
2021/05/31 04:15:41;;;;;;;1.48;1.20;;;;;;;13.51;66.84;100124.69;4401800;32;34215;-76
2021/05/31 04:18:09;;;;;;;2.00;1.15;;;;;;;13.40;67.86;100132.94;4414882;32;34312;-79
2021/05/31 04:20:37;;;;;;;4.60;1.40;;;;;;;13.48;67.62;100126.84;4414672;32;34943;-81
2021/05/31 04:23:05;;;;;;;1.83;1.08;;;;;;;13.67;67.09;100127.50;4415744;32;33953;-82
2021/05/31 04:25:33;;;;;;;1.08;1.05;;;;;;;13.61;67.30;100127.28;4401778;32;35144;-76
2021/05/31 04:28:00;;;;;;;0.85;0.85;;;;;;;13.92;66.06;100131.19;4429549;32;34256;-79
2021/05/31 04:30:28;;;;;;;1.92;1.50;;;;;;;13.66;66.92;100131.16;4414308;32;35117;-78
2021/05/31 04:32:56;;;;;;;1.20;1.10;;;;;;;13.65;66.85;100124.16;4415939;32;33599;-79
2021/05/31 04:35:23;;;;;;;1.08;0.98;;;;;;;14.00;65.42;100129.41;4401995;32;33607;-78
2021/05/31 04:37:56;;;;;;;1.52;0.85;;;;;;;13.82;66.14;100128.63;4415498;32;34395;-78
2021/05/31 04:40:24;;;;;;;1.15;1.15;;;;;;;13.92;65.39;100131.19;4427489;32;34276;-79
2021/05/31 04:53:31;;;;;;;1.00;0.98;;;;;;;13.62;67.95;100128.97;4390953;32;34351;-77
2021/05/31 05:09:37;;;;;;;0.98;0.95;;;;;;;14.31;65.68;100124.41;4334280;32;33051;-81
2021/05/31 05:12:43;;;;;;;1.55;1.45;;;;;;;14.31;66.02;100114.56;4365648;32;33648;-77
2021/05/31 05:31:37;;;;;;;1.73;1.17;;;;;;;14.85;65.39;100124.81;4296112;33;32430;-80
2021/05/31 05:59:51;;;;;;;1.12;0.45;;;;;;;15.74;63.38;100131.94;4364914;32;32480;-81
2021/05/31 06:06:15;;;;;;;0.70;0.70;;;;;;;15.99;62.97;100139.81;4364623;32;34632;-79
2021/05/31 06:16:45;;;;;;;1.33;0.57;;;;;;;16.70;61.33;100129.06;4364511;32;32265;-80
2021/05/31 06:26:13;;;;;;;;;;;;;;;;;;;;;
2021/05/31 06:45:01;;;;;;;;;;;;;;;17.60;58.08;100124.63;4410555;32;35462;-80
2021/05/31 06:54:27;;;;;;;0.47;0.47;;;;;;;17.63;58.27;100125.09;4381627;32;32985;-80
2021/05/31 07:03:50;;;;;;;1.05;0.52;;;;;;;17.65;59.05;100124.91;4385237;32;34458;-80
2021/05/31 07:41:39;;;;;;;2.50;1.33;;;;;;;17.30;59.78;100143.47;4379104;32;34119;-82
2021/05/31 07:48:03;;;;;;;1.35;0.93;;;;;;;17.23;59.57;100148.75;4429657;32;34872;-81
2021/05/31 08:36:22;;;;;;;0.50;0.45;;;;;;;19.24;55.98;100116.03;4339911;32;33887;-81
2021/05/31 08:43:00;;;;;;;1.25;0.88;;;;;;;19.30;52.23;100102.59;4363944;32;34521;-83
2021/05/31 09:05:26;;;;;;;0.40;0.40;;;;;;;19.56;44.19;100100.12;4304755;33;34858;-89
2021/05/31 09:31:21;;;;;;;0.35;0.25;;;;;;;20.04;46.01;100091.22;4319279;33;35152;-85
2021/05/31 10:11:32;;;;;;;0.30;0.30;;;;;;;21.11;40.46;100057.00;4310999;33;36785;-89
2021/05/31 10:32:16;;;;;;;0.20;0.20;;;;;;;22.67;36.23;100021.59;4272855;33;33320;-91
2021/05/31 10:58:47;;;;;;;0.50;0.50;;;;;;;23.09;34.82;100009.25;4334896;32;32543;-90
2021/05/31 11:09:17;;;;;;;0.55;0.50;;;;;;;23.66;33.40;100014.50;4268301;33;35908;-90
2021/05/31 11:35:15;;;;;;;0.52;0.47;;;;;;;23.67;29.79;99973.50;4251347;33;33700;-91
2021/05/31 11:39:05;;;;;;;1.92;0.40;;;;;;;24.86;33.13;99953.69;4269090;33;34554;-89
2021/05/31 12:16:00;;;;;;;0.32;0.25;;;;;;;22.64;34.38;99948.00;4425328;32;33907;-90
2021/05/31 12:58:10;;;;;;;0.65;0.65;;;;;;;17.84;58.51;100049.03;4264290;33;33161;-80
2021/05/31 13:22:10;;;;;;;0.35;0.35;;;;;;;17.63;60.75;100059.69;4334008;33;35007;-82
2021/05/31 13:35:40;;;;;;;;;;;;;;;;;;;;;
2021/05/31 13:39:04;;;;;;;0.57;0.37;;;;;;;16.57;63.20;100062.47;4386220;32;33440;-79
2021/05/31 13:52:12;;;;;;;0.43;0.30;;;;;;;16.65;63.00;100043.63;4392097;32;33034;-79
2021/05/31 14:01:57;;;;;;;0.37;0.30;;;;;;;16.74;63.52;100022.91;4355117;32;34970;-80
2021/05/31 14:05:01;;;;;;;0.10;0.10;;;;;;;17.15;62.77;100013.50;4345737;32;31893;-82
2021/05/31 14:30:29;;;;;;;;;;;;;;;18.25;61.99;99980.25;4348857;32;33917;-79
2021/05/31 14:33:42;;;;;;;0.10;0.10;;;;;;;18.37;61.17;99968.81;4348748;32;34104;-79
2021/05/31 14:37:25;;;;;;;4.20;0.60;;;;;;;18.34;60.98;99962.97;4305493;33;34020;-79
2021/05/31 14:59:34;;;;;;;0.90;0.47;;;;;;;18.33;60.09;99920.91;4365228;32;33197;-79
2021/05/31 15:22:15;;;;;;;2.17;0.77;;;;;;;18.57;59.88;99928.62;4426890;32;32790;-80
2021/05/31 15:28:45;;;;;;;0.62;0.57;;;;;;;17.78;61.61;99916.03;4364485;32;35164;-81
2021/05/31 15:32:27;;;;;;;0.10;0.10;;;;;;;18.16;59.58;99922.94;4378973;32;34371;-80
2021/05/31 15:48:31;;;;;;;0.30;0.30;;;;;;;18.60;60.69;99926.38;4376490;32;32732;-82
2021/05/31 16:10:38;;;;;;;0.45;0.30;;;;;;;19.44;58.09;99934.38;4365222;32;34420;-83
2021/05/31 16:13:55;;;;;;;0.45;0.20;;;;;;;19.03;59.24;99933.41;4352563;32;31668;-82
2021/05/31 16:27:06;;;;;;;1.10;0.73;;;;;;;19.84;55.10;99936.31;4364510;32;32461;-83
2021/05/31 17:00:02;;;;;;;;;;;;;;;;;;;;;
2021/05/31 17:09:34;;;;;;;0.40;0.40;;;;;;;18.93;57.82;99930.22;4428426;32;33918;-84
2021/05/31 17:29:50;;;;;;;0.62;0.30;;;;;;;19.35;56.33;99942.84;4350714;32;34095;-86
2021/05/31 17:35:45;;;;;;;3.40;0.20;;;;;;;19.39;55.93;99944.94;4413119;26;33036;-82
2021/05/31 17:38:13;;;;;;;0.30;0.30;;;;;;;19.30;56.33;99947.97;4416312;32;33125;-83
2021/05/31 17:40:40;;;;;;;;;;;;;;;18.58;58.91;99952.69;4404241;32;36217;-82
2021/05/31 17:43:09;;;;;;;1.35;0.43;;;;;;;18.69;59.02;99954.03;4403247;32;31230;-82
2021/05/31 17:45:38;;;;;;;0.90;0.82;;;;;;;18.66;59.46;99957.09;4443873;32;33805;-81
2021/05/31 17:48:07;;;;;;;0.82;0.82;;;;;;;17.16;64.87;99970.31;4415811;32;33702;-81
2021/05/31 17:50:37;;;;;;;0.85;0.85;;;;;;;17.09;65.04;99971.25;4416740;32;34063;-82
2021/05/31 17:53:10;;;;;;;2.08;0.93;;;;;;;17.71;63.23;99974.34;4416296;32;32854;-82
2021/05/31 17:55:39;;;;;;;2.40;1.48;;;;;;;17.85;62.81;99978.06;4424941;32;143127;-80
2021/05/31 17:58:09;;;;;;;2.45;0.93;;;;;;;17.12;64.62;99979.78;4443743;32;34670;-79
2021/05/31 18:00:38;;;;;;;1.80;1.12;;;;;;;17.13;64.63;99986.81;4416657;32;33099;-82
2021/05/31 18:03:11;;;;;;;0.73;0.55;;;;;;;16.75;63.89;99992.31;4417569;32;33073;-82
2021/05/31 18:05:39;;;;;;;2.12;0.70;;;;;;;15.76;66.53;99988.59;4415175;32;34625;-82
2021/05/31 18:08:16;;;;;;;0.57;0.55;;;;;;;16.20;63.08;99996.97;4441276;32;36529;-82
2021/05/31 18:10:44;;;;;;;1.00;0.80;;;;;;;16.09;62.86;99992.84;4414388;32;35173;-80
2021/05/31 18:13:12;;;;;;;0.50;0.32;;;;;;;15.98;60.39;99992.38;4414132;32;33143;-80
2021/05/31 18:15:44;;;;;;;0.52;0.52;;;;;;;15.67;60.92;99997.69;4427826;32;34704;-80
2021/05/31 18:18:13;;;;;;;1.12;0.47;;;;;;;15.73;58.36;100002.38;4429287;32;35932;-81
2021/05/31 18:20:42;;;;;;;1.33;0.57;;;;;;;15.51;58.17;100013.78;4416573;32;33981;-81
2021/05/31 18:23:13;;;;;;;0.37;0.37;;;;;;;14.73;58.24;100011.78;4415052;32;33345;-82
2021/05/31 18:25:44;;;;;;;0.30;0.30;;;;;;;14.91;59.48;100009.78;4417506;32;34543;-81
2021/05/31 18:28:13;;;;;;;0.50;0.40;;;;;;;15.77;57.24;100005.56;4416056;32;36990;-79
2021/05/31 18:30:41;;;;;;;0.52;0.52;;;;;;;15.78;56.67;100015.25;4416292;32;35015;-80
2021/05/31 18:33:26;;;;;;;3.72;0.43;;;;;;;15.52;57.62;100009.28;4418096;32;32941;-80
2021/05/31 18:36:39;;;;;;;1.30;0.50;;;;;;;16.11;57.16;100011.44;4428650;32;33969;-81
2021/05/31 18:38:48;;;;;;;0.68;0.40;;;;;;;15.57;57.47;100031.06;4426741;32;36365;-80
2021/05/31 18:41:16;;;;;;;0.55;0.40;;;;;;;15.65;57.04;100025.66;4429232;32;34952;-79
2021/05/31 18:43:46;;;;;;;;;;;;;;;15.86;56.50;100025.97;4429284;32;32813;-81
2021/05/31 18:46:16;;;;;;;1.80;0.70;;;;;;;15.96;56.40;100026.63;4417133;32;32708;-80
2021/05/31 18:48:46;;;;;;;0.55;0.47;;;;;;;16.29;55.54;100029.00;4425412;32;34236;-80
2021/05/31 18:51:14;;;;;;;1.52;0.68;;;;;;;16.46;55.15;100041.38;4411224;32;34023;-79
2021/05/31 18:53:45;;;;;;;3.12;1.75;;;;;;;16.61;56.42;100034.22;4418357;32;33518;-80
2021/05/31 18:56:13;;;;;;;0.80;0.80;;;;;;;15.76;59.29;100063.72;4416844;32;33431;-80
2021/05/31 18:58:41;;;;;;;1.15;1.05;;;;;;;15.93;58.21;100075.25;4417642;32;34243;-80
2021/05/31 19:01:09;;;;;;;0.95;0.85;;;;;;;16.58;57.51;100068.66;4417749;32;32986;-80
2021/05/31 19:03:38;;;;;;;1.02;0.60;;;;;;;16.62;58.16;100078.88;4431514;32;34364;-81
2021/05/31 19:06:06;;;;;;;0.90;0.77;;;;;;;16.59;59.03;100083.75;4418444;32;33793;-79
2021/05/31 19:08:34;;;;;;;2.55;0.90;;;;;;;16.03;58.24;100095.53;4417864;32;35788;-81
2021/05/31 19:11:03;;;;;;;1.50;0.68;;;;;;;16.27;57.71;100091.94;4418609;32;36189;-80
2021/05/31 19:13:34;;;;;;;0.32;0.32;;;;;;;16.49;58.29;100093.88;4417750;32;33875;-79
2021/05/31 19:16:04;;;;;;;1.70;0.25;;;;;;;16.30;59.02;100096.94;4406757;32;33587;-80
2021/05/31 19:18:33;;;;;;;3.58;0.45;;;;;;;16.06;59.48;100105.91;4432848;32;34756;-82
2021/05/31 19:21:01;;;;;;;0.30;0.30;;;;;;;15.75;58.84;100096.91;4402577;32;35128;-81
2021/05/31 19:23:31;;;;;;;1.48;0.60;;;;;;;16.02;59.64;100098.37;4429066;32;33412;-80
2021/05/31 19:25:59;;;;;;;0.68;0.40;;;;;;;16.02;60.81;100101.06;4417787;32;34770;-81
2021/05/31 19:28:27;;;;;;;0.37;0.37;;;;;;;15.99;61.47;100104.09;4445136;32;35869;-82
2021/05/31 19:30:56;;;;;;;0.20;0.20;;;;;;;15.17;63.58;100106.94;4417122;32;32974;-82
2021/05/31 19:33:24;;;;;;;0.13;0.13;;;;;;;15.68;62.28;100101.28;4417743;32;32795;-80
2021/05/31 19:35:54;;;;;;;0.37;0.35;;;;;;;14.42;64.47;100098.19;4418611;32;34388;-82
2021/05/31 19:38:23;;;;;;;0.57;0.57;;;;;;;13.51;65.90;100091.78;4419031;32;34514;-83
2021/05/31 19:40:51;;;;;;;2.72;1.60;;;;;;;12.52;70.10;100075.97;4418447;32;35967;-82
2021/05/31 19:43:22;;;;;;;0.82;0.70;;;;;;;13.00;69.66;100081.84;4430709;32;32651;-84
2021/05/31 19:45:51;;;;;;;0.35;0.35;;;;;;;13.81;67.96;100080.63;4430517;32;34304;-85
2021/05/31 19:48:19;;;;;;;0.28;0.28;;;;;;;14.49;67.12;100075.16;4416999;32;33705;-85
2021/05/31 19:50:47;;;;;;;1.02;0.88;;;;;;;14.73;66.92;100064.53;4418214;32;34160;-84
2021/05/31 19:53:25;;;;;;;0.40;0.40;;;;;;;14.76;66.89;100056.97;4444549;32;35809;-83
2021/05/31 19:56:16;;;;;;;0.55;0.47;;;;;;;14.93;66.62;100055.19;4430198;32;36157;-83
2021/05/31 20:01:31;;;;;;;0.53;0.50;;;;;;;14.77;67.23;100031.84;4431375;32;33780;-81
2021/05/31 20:04:00;;;;;;;2.45;1.27;;;;;;;15.07;66.03;100027.72;4429708;32;32706;-82
2021/05/31 20:06:28;;;;;;;0.73;0.73;;;;;;;14.78;66.55;100027.34;4418479;32;33824;-81
2021/05/31 20:08:56;;;;;;;0.50;0.50;;;;;;;14.85;66.00;100021.16;4431059;32;34831;-82
2021/05/31 20:11:25;;;;;;;4.68;1.80;;;;;;;14.82;66.39;100024.19;4418169;32;35373;-81
2021/05/31 20:13:53;;;;;;;0.70;0.70;;;;;;;14.91;66.06;100019.66;4418196;32;34055;-81
2021/05/31 20:16:21;;;;;;;0.50;0.47;;;;;;;14.96;65.97;100020.00;4445082;32;36206;-82
2021/05/31 20:18:50;;;;;;;0.73;0.60;;;;;;;15.12;65.22;100020.03;4430659;32;33114;-82
2021/05/31 20:21:19;;;;;;;0.52;0.52;;;;;;;15.20;64.83;100011.97;4417578;32;33952;-82
2021/05/31 20:23:48;;;;;;;0.90;0.90;;;;;;;15.00;65.65;100024.00;4417702;32;32836;-82
2021/05/31 20:26:16;;;;;;;0.90;0.62;;;;;;;14.96;66.10;100023.53;4430741;32;33942;-83
2021/05/31 20:28:44;;;;;;;2.47;0.50;;;;;;;15.00;66.54;100024.00;4430215;32;35853;-82
2021/05/31 20:31:12;;;;;;;0.45;0.40;;;;;;;14.93;66.48;100023.84;4405019;32;33937;-80
2021/05/31 20:33:43;;;;;;;1.12;0.68;;;;;;;14.90;66.65;100034.06;4419226;32;33357;-80
2021/05/31 20:36:11;;;;;;;0.70;0.70;;;;;;;14.94;66.51;100043.44;4431451;32;33421;-80
2021/05/31 20:38:40;;;;;;;1.75;0.62;;;;;;;14.81;67.13;100040.41;4405507;32;33494;-82
2021/05/31 20:41:08;;;;;;;0.70;0.70;;;;;;;14.83;67.18;100046.47;4418021;32;33655;-81
2021/05/31 20:43:36;;;;;;;1.17;0.68;;;;;;;14.80;66.86;100039.59;4405641;32;35348;-81
2021/05/31 20:46:04;;;;;;;0.88;0.88;;;;;;;14.48;67.42;100044.03;4418554;32;34378;-81
2021/05/31 20:48:34;;;;;;;0.28;0.28;;;;;;;14.64;66.84;100044.06;4430263;32;35308;-80
2021/05/31 20:51:02;;;;;;;;;;;;;;;14.53;67.38;100037.19;4417490;32;32996;-81
2021/05/31 20:53:30;;;;;;;0.62;0.62;;;;;;;14.48;67.47;100044.84;4404108;32;32889;-82
2021/05/31 20:55:59;;;;;;;2.10;1.52;;;;;;;14.08;68.65;100049.19;4430581;32;34248;-82
2021/05/31 20:58:48;;;;;;;0.80;0.32;;;;;;;13.75;69.37;100049.16;4432630;32;36312;-82
2021/05/31 21:01:16;;;;;;;1.35;0.62;;;;;;;14.36;67.27;100049.84;4417848;32;34683;-82
2021/05/31 21:03:51;;;;;;;0.50;0.50;;;;;;;14.07;68.51;100038.66;4417214;32;33550;-82
2021/05/31 21:06:21;;;;;;;0.70;0.70;;;;;;;14.14;67.87;100047.72;4430768;32;34445;-82
2021/05/31 21:09:00;;;;;;;0.00;0.00;;;;;;;14.38;67.13;100050.50;4430495;32;34159;-82
2021/05/31 21:11:49;;;;;;;0.52;0.47;;;;;;;14.35;67.14;100054.34;4430471;32;34250;-82
2021/05/31 21:14:43;;;;;;;0.35;0.28;;;;;;;14.38;67.08;100054.03;4417683;32;33615;-82
2021/05/31 21:17:30;;;;;;;0.13;0.13;;;;;;;14.46;66.87;100062.91;4403931;32;34282;-83
2021/05/31 21:20:03;;;;;;;1.65;1.55;;;;;;;14.50;66.90;100055.41;4416911;32;35031;-81
2021/05/31 21:23:06;;;;;;;0.50;0.50;;;;;;;14.40;67.35;100065.41;4430374;32;34149;-82
2021/05/31 21:25:34;;;;;;;0.90;0.62;;;;;;;14.22;67.81;100071.84;4392262;32;34747;-81
2021/05/31 21:28:04;;;;;;;0.77;0.55;;;;;;;14.52;66.63;100064.97;4431084;32;34128;-82
2021/05/31 21:30:34;;;;;;;3.20;0.80;;;;;;;14.42;66.21;100050.03;4416216;32;36856;-82
2021/05/31 21:33:03;;;;;;;2.05;0.95;;;;;;;14.21;66.28;100054.09;4416947;32;34447;-82
2021/05/31 21:35:32;;;;;;;0.52;0.43;;;;;;;14.38;65.59;100054.03;4430367;32;33210;-84
2021/05/31 21:38:01;;;;;;;0.37;0.32;;;;;;;13.98;67.20;100053.81;4429917;32;34760;-81
2021/05/31 21:40:30;;;;;;;0.60;0.60;;;;;;;13.70;68.19;100048.81;4404396;32;34792;-82
2021/05/31 21:42:58;;;;;;;;;;;;;;;13.88;67.16;100041.56;4417297;32;35079;-82
2021/05/31 21:45:26;;;;;;;0.40;0.40;;;;;;;13.92;66.82;100043.75;4444676;32;33852;-81
2021/05/31 21:47:54;;;;;;;1.05;0.62;;;;;;;14.05;66.27;100046.00;4430482;32;33271;-83
2021/05/31 21:50:21;;;;;;;;;;;;;;;14.18;65.53;100041.06;4430361;32;34782;-82
2021/05/31 21:52:49;;;;;;;0.45;0.45;;;;;;;14.20;65.17;100047.94;4404203;32;34244;-82
2021/05/31 21:55:18;;;;;;;4.93;1.23;;;;;;;14.32;64.56;100037.78;4417999;32;34962;-82
2021/05/31 21:57:46;;;;;;;0.50;0.50;;;;;;;14.02;65.40;100043.63;4442536;32;33597;-81
2021/05/31 22:00:19;;;;;;;0.45;0.45;;;;;;;14.09;65.55;100048.19;4417434;32;35109;-81
2021/05/31 22:02:48;;;;;;;7.18;0.95;;;;;;;14.12;65.23;100037.16;4416527;32;34503;-83
2021/05/31 22:05:16;;;;;;;;;;;;;;;13.92;65.68;100042.91;4404934;32;32161;-81
2021/05/31 22:07:44;;;;;;;0.50;0.50;;;;;;;13.86;66.19;100036.38;4429773;32;33450;-81
2021/05/31 22:10:15;;;;;;;0.50;0.45;;;;;;;13.66;66.83;100047.44;4428985;32;35523;-81
2021/05/31 22:12:46;;;;;;;0.40;0.30;;;;;;;13.51;66.81;100033.81;4443015;32;33574;-83
2021/05/31 22:15:17;;;;;;;0.75;0.52;;;;;;;13.41;66.66;100037.59;4429574;32;34881;-82
2021/05/31 22:17:48;;;;;;;0.73;0.40;;;;;;;13.42;66.19;100041.94;4429646;32;34680;-82
2021/05/31 22:20:24;;;;;;;0.85;0.60;;;;;;;13.16;67.10;100041.06;4402065;32;35496;-83
2021/05/31 22:25:59;;;;;;;0.73;0.55;;;;;;;13.20;67.05;100034.44;4445670;32;33114;-81
2021/05/31 22:31:26;;;;;;;0.75;0.65;;;;;;;12.84;68.05;100041.56;4433458;32;36206;-81
2021/05/31 22:33:56;;;;;;;1.50;0.57;;;;;;;12.65;69.03;100033.72;4432173;32;34808;-83
2021/05/31 22:36:25;;;;;;;1.30;0.57;;;;;;;13.04;68.15;100034.28;4417995;32;32743;-83
2021/05/31 22:55:27;;;;;;;0.50;0.50;;;;;;;13.35;66.09;100028.38;4434127;32;33689;-84
2021/05/31 23:14:07;;;;;;;0.70;0.45;;;;;;;13.48;63.75;100019.94;4420361;32;34081;-80
2021/05/31 23:16:35;;;;;;;0.47;0.47;;;;;;;13.46;63.95;100020.09;4444795;32;33411;-81
2021/05/31 23:19:14;;;;;;;0.77;0.70;;;;;;;12.65;67.39;100019.56;4406802;32;35109;-81
2021/05/31 23:21:42;;;;;;;0.60;0.50;;;;;;;12.61;67.39;100026.16;4418643;32;34592;-83
2021/05/31 23:24:11;;;;;;;0.60;0.60;;;;;;;12.89;66.19;100025.09;4418482;32;34927;-81
2021/05/31 23:26:39;;;;;;;5.68;0.73;;;;;;;12.50;67.17;100019.25;4432390;32;34930;-82
2021/05/31 23:29:08;;;;;;;0.60;0.47;;;;;;;12.38;67.75;100027.59;4431663;32;33395;-81
2021/05/31 23:31:37;;;;;;;1.65;0.62;;;;;;;12.69;66.34;100021.75;4430860;32;33772;-80
2021/05/31 23:34:04;;;;;;;0.65;0.65;;;;;;;12.44;67.27;100022.50;4419065;32;36127;-81
2021/05/31 23:36:33;;;;;;;0.57;0.57;;;;;;;12.19;68.98;100020.53;4429360;32;34103;-81